createdAt,value
2023-02-19T00:02:48.575Z,20.83
2023-02-19T00:05:51.417Z,20.83
2023-02-19T00:08:54.261Z,20.79
2023-02-19T00:11:58.483Z,20.86
2023-02-19T00:15:01.320Z,20.82
2023-02-19T00:18:04.092Z,20.79
2023-02-19T00:21:07.277Z,20.80
2023-02-19T00:24:12.427Z,20.85
2023-02-19T00:27:16.637Z,20.83
2023-02-19T00:30:19.533Z,20.83
2023-02-19T00:33:22.450Z,20.84
2023-02-19T00:36:26.144Z,20.82
2023-02-19T00:39:29.800Z,20.85
2023-02-19T00:42:34.041Z,20.87
2023-02-19T00:45:36.884Z,20.84
2023-02-19T00:48:39.673Z,20.89
2023-02-19T00:51:42.449Z,20.88
2023-02-19T00:54:45.224Z,20.88
2023-02-19T00:57:49.418Z,20.87
2023-02-19T01:00:52.255Z,20.86
2023-02-19T01:03:55.083Z,20.86
2023-02-19T01:06:57.949Z,20.87
2023-02-19T01:10:00.804Z,20.82
2023-02-19T01:13:04.994Z,20.87
2023-02-19T01:16:08.617Z,20.91
2023-02-19T01:19:11.774Z,20.82
2023-02-19T01:22:14.849Z,20.90
2023-02-19T01:25:17.796Z,20.93
2023-02-19T01:28:22.990Z,20.87
2023-02-19T01:31:26.038Z,20.90
2023-02-19T01:34:33.314Z,20.95
2023-02-19T01:37:36.232Z,20.90
2023-02-19T01:40:39.036Z,20.95
2023-02-19T01:44:01.190Z,20.97
2023-02-19T01:47:04.052Z,20.94
2023-02-19T01:50:07.294Z,21.03
2023-02-19T01:53:11.954Z,20.99
2023-02-19T01:56:15.683Z,20.94
2023-02-19T01:59:20.195Z,21.00
2023-02-19T02:02:25.118Z,20.96
2023-02-19T02:05:55.267Z,20.98
2023-02-19T02:09:16.318Z,20.99
2023-02-19T02:12:19.162Z,20.95
2023-02-19T02:15:25.825Z,20.79
2023-02-19T02:18:32.697Z,20.77
2023-02-19T02:21:49.047Z,20.69
2023-02-19T02:25:13.023Z,20.61
2023-02-19T02:28:23.784Z,20.59
2023-02-19T02:31:31.445Z,20.53
2023-02-19T02:34:38.022Z,20.44
2023-02-19T02:37:43.728Z,20.41
2023-02-19T02:40:47.281Z,20.37
2023-02-19T02:43:50.114Z,20.33
2023-02-19T02:46:54.344Z,20.32
2023-02-19T02:50:06.178Z,20.32
2023-02-19T02:53:28.076Z,20.25
2023-02-19T02:56:31.803Z,20.21
2023-02-19T02:59:37.231Z,20.26
2023-02-19T03:02:42.022Z,20.21
2023-02-19T03:05:54.078Z,20.22
2023-02-19T03:09:00.136Z,20.20
2023-02-19T03:12:22.016Z,20.12
2023-02-19T03:15:48.729Z,20.20
2023-02-19T03:19:12.536Z,20.14
2023-02-19T03:22:17.733Z,20.07
2023-02-19T03:25:40.129Z,20.04
2023-02-19T03:29:01.525Z,19.95
2023-02-19T03:32:06.877Z,19.93
2023-02-19T03:35:13.044Z,19.89
2023-02-19T03:38:18.949Z,19.84
2023-02-19T03:41:25.229Z,19.81
2023-02-19T03:44:34.544Z,19.82
2023-02-19T03:47:41.188Z,19.74
2023-02-19T03:50:47.152Z,19.73
2023-02-19T03:53:53.512Z,19.69
2023-02-19T03:57:00.984Z,19.63
2023-02-19T04:00:06.761Z,19.62
2023-02-19T04:03:13.121Z,19.69
2023-02-19T04:06:20.921Z,19.63
2023-02-19T04:09:25.094Z,19.71
2023-02-19T04:12:28.439Z,19.79
2023-02-19T04:15:33.180Z,19.91
2023-02-19T04:18:38.896Z,20.05
2023-02-19T04:21:43.359Z,20.14
2023-02-19T04:24:49.042Z,20.20
2023-02-19T04:27:51.862Z,20.22
2023-02-19T04:30:54.768Z,20.30
2023-02-19T04:33:57.601Z,20.29
2023-02-19T04:37:01.768Z,20.36
2023-02-19T04:40:04.784Z,20.38
2023-02-19T04:43:07.599Z,20.41
2023-02-19T04:46:10.409Z,20.43
2023-02-19T04:49:13.304Z,20.43
2023-02-19T04:52:17.565Z,20.44
2023-02-19T04:55:20.374Z,20.48
2023-02-19T04:58:23.197Z,20.51
2023-02-19T05:01:26.113Z,20.50
2023-02-19T05:04:29.041Z,20.55
2023-02-19T05:07:33.347Z,20.51
2023-02-19T05:10:36.175Z,20.57
2023-02-19T05:13:39.455Z,20.57
2023-02-19T05:16:42.230Z,20.55
2023-02-19T05:19:45.033Z,20.58
2023-02-19T05:22:49.196Z,20.55
2023-02-19T05:25:52.081Z,20.58
2023-02-19T05:28:54.995Z,20.62
2023-02-19T05:31:57.861Z,20.64
2023-02-19T05:35:00.715Z,20.60
2023-02-19T05:38:05.961Z,20.66
2023-02-19T05:41:09.910Z,20.68
2023-02-19T05:44:12.862Z,20.70
2023-02-19T05:47:15.657Z,20.76
2023-02-19T05:50:18.616Z,20.74
2023-02-19T05:53:22.801Z,20.75
2023-02-19T05:56:28.693Z,20.82
2023-02-19T05:59:31.741Z,20.82
2023-02-19T06:02:34.516Z,20.80
2023-02-19T06:05:38.513Z,20.77
2023-02-19T06:08:42.926Z,20.75
2023-02-19T06:11:45.928Z,20.69
2023-02-19T06:14:49.062Z,20.68
2023-02-19T06:17:51.917Z,20.64
2023-02-19T06:20:54.678Z,20.60
2023-02-19T06:23:58.890Z,20.60
2023-02-19T06:27:01.713Z,20.52
2023-02-19T06:30:04.826Z,20.52
2023-02-19T06:33:07.711Z,20.48
2023-02-19T06:36:12.447Z,20.43
2023-02-19T06:39:16.716Z,20.40
2023-02-19T06:42:19.534Z,20.40
2023-02-19T06:45:22.323Z,20.37
2023-02-19T06:48:25.146Z,20.34
2023-02-19T06:51:29.752Z,20.32
2023-02-19T06:54:34.542Z,20.29
2023-02-19T06:57:37.346Z,20.32
2023-02-19T07:00:40.171Z,20.27
2023-02-19T07:03:43.193Z,20.21
2023-02-19T07:06:46.024Z,20.24
2023-02-19T07:09:50.298Z,20.19
2023-02-19T07:12:53.114Z,20.25
2023-02-19T07:15:59.792Z,20.15
2023-02-19T07:19:02.947Z,20.20
2023-02-19T07:22:05.831Z,20.14
2023-02-19T07:25:10.162Z,20.12
2023-02-19T07:28:12.984Z,20.18
2023-02-19T07:31:16.647Z,20.15
2023-02-19T07:34:19.505Z,20.11
2023-02-19T07:37:22.362Z,20.13
2023-02-19T07:40:26.585Z,20.06
2023-02-19T07:43:30.535Z,20.05
2023-02-19T07:46:33.372Z,20.06
2023-02-19T07:49:36.228Z,20.05
2023-02-19T07:56:02.726Z,19.98
2023-02-19T07:59:05.546Z,19.97
2023-02-19T08:02:29.995Z,19.98
2023-02-19T08:05:34.898Z,19.96
2023-02-19T08:08:38.036Z,19.93
2023-02-19T08:11:59.750Z,19.93
2023-02-19T08:15:02.621Z,19.92
2023-02-19T08:18:05.404Z,19.93
2023-02-19T08:21:08.351Z,19.92
2023-02-19T08:24:11.402Z,19.87
2023-02-19T08:27:18.646Z,19.90
2023-02-19T08:30:21.504Z,19.86
2023-02-19T08:33:24.350Z,19.89
2023-02-19T08:36:27.503Z,19.87
2023-02-19T08:39:30.341Z,19.88
2023-02-19T08:42:34.481Z,19.85
2023-02-19T08:45:38.435Z,19.87
2023-02-19T08:48:41.740Z,19.85
2023-02-19T08:51:44.549Z,19.85
2023-02-19T08:54:47.313Z,19.84
2023-02-19T08:57:51.622Z,19.86
2023-02-19T09:00:54.695Z,19.83
2023-02-19T09:03:57.591Z,19.93
2023-02-19T09:07:00.465Z,20.03
2023-02-19T09:10:03.363Z,20.13
2023-02-19T09:13:07.595Z,20.23
2023-02-19T09:16:10.623Z,20.36
2023-02-19T09:19:13.429Z,20.48
2023-02-19T09:22:16.223Z,20.60
2023-02-19T09:25:19.093Z,20.65
2023-02-19T09:28:29.404Z,20.69
2023-02-19T09:31:35.227Z,20.72
2023-02-19T09:34:39.070Z,20.78
2023-02-19T09:37:41.924Z,20.84
2023-02-19T09:40:44.855Z,20.91
2023-02-19T09:43:49.160Z,20.95
2023-02-19T09:46:53.074Z,20.98
2023-02-19T09:49:57.113Z,20.99
2023-02-19T09:53:01.680Z,20.93
2023-02-19T09:56:05.873Z,20.96
2023-02-19T09:59:17.533Z,21.10
2023-02-19T10:02:22.208Z,21.05
2023-02-19T10:05:26.292Z,21.10
2023-02-19T10:08:32.800Z,21.17
2023-02-19T10:11:35.736Z,21.15
2023-02-19T10:14:41.469Z,21.22
2023-02-19T10:17:44.336Z,21.19
2023-02-19T10:20:48.340Z,21.22
2023-02-19T10:23:52.646Z,21.25
2023-02-19T10:26:55.725Z,21.28
2023-02-19T10:30:01.349Z,21.27
2023-02-19T10:33:09.602Z,21.33
2023-02-19T10:36:21.957Z,21.33
2023-02-19T10:39:33.489Z,21.29
2023-02-19T10:42:36.264Z,21.32
2023-02-19T10:45:42.233Z,21.34
2023-02-19T10:48:48.171Z,21.31
2023-02-19T10:51:51.161Z,21.31
2023-02-19T10:54:55.953Z,21.38
2023-02-19T10:57:59.186Z,21.36
2023-02-19T11:01:13.884Z,21.34
2023-02-19T11:04:17.605Z,21.41
2023-02-19T11:07:20.659Z,21.36
2023-02-19T11:10:27.441Z,21.31
2023-02-19T11:13:33.005Z,21.37
2023-02-19T11:16:41.336Z,21.33
2023-02-19T11:19:45.026Z,21.22
2023-02-19T11:22:49.311Z,21.19
2023-02-19T11:25:54.082Z,21.21
2023-02-19T11:28:58.005Z,21.20
2023-02-19T11:32:17.852Z,21.14
2023-02-19T11:35:23.174Z,21.06
2023-02-19T11:38:26.020Z,21.04
2023-02-19T11:41:40.180Z,21.02
2023-02-19T11:44:49.494Z,20.98
2023-02-19T11:48:11.419Z,21.00
2023-02-19T11:51:23.493Z,20.94
2023-02-19T11:54:32.677Z,20.92
2023-02-19T11:57:39.463Z,20.91
2023-02-19T12:00:47.230Z,20.88
2023-02-19T12:04:23.164Z,20.85
2023-02-19T12:07:35.930Z,20.73
2023-02-19T12:10:45.821Z,20.67
2023-02-19T12:13:57.393Z,20.67
2023-02-19T12:17:04.133Z,20.66
2023-02-19T12:20:14.232Z,20.68
2023-02-19T12:23:34.898Z,20.66
2023-02-19T12:26:41.197Z,20.65
2023-02-19T12:30:01.904Z,20.66
2023-02-19T12:33:13.221Z,20.61
2023-02-19T12:36:23.649Z,20.58
2023-02-19T12:39:31.641Z,20.59
2023-02-19T12:42:41.361Z,20.60
2023-02-19T12:45:46.933Z,20.60
2023-02-19T12:48:53.962Z,20.60
2023-02-19T12:51:59.869Z,20.75
2023-02-19T12:55:06.995Z,20.66
2023-02-19T12:58:12.836Z,20.72
2023-02-19T13:01:17.386Z,20.63
2023-02-19T13:04:25.328Z,20.56
2023-02-19T13:07:32.786Z,20.47
2023-02-19T13:10:39.376Z,20.50
2023-02-19T13:13:43.875Z,20.48
2023-02-19T13:16:49.728Z,20.40
2023-02-19T13:19:54.366Z,20.45
2023-02-19T13:23:20.898Z,20.44
2023-02-19T13:26:43.022Z,20.51
2023-02-19T13:29:54.486Z,20.59
2023-02-19T13:33:03.615Z,20.62
2023-02-19T13:36:14.270Z,20.62
2023-02-19T13:39:20.779Z,20.65
2023-02-19T13:42:26.430Z,20.69
2023-02-19T13:45:32.841Z,20.78
2023-02-19T13:48:36.509Z,20.87
2023-02-19T13:51:40.589Z,20.89
2023-02-19T13:54:44.914Z,20.88
2023-02-19T13:57:47.819Z,20.85
2023-02-19T14:00:51.313Z,20.92
2023-02-19T14:03:55.038Z,20.92
2023-02-19T14:07:16.543Z,20.95
2023-02-19T14:10:37.981Z,21.02
2023-02-19T14:13:59.306Z,21.01
2023-02-19T14:17:05.673Z,21.01
2023-02-19T14:20:23.297Z,21.05
2023-02-19T14:23:26.245Z,21.07
2023-02-19T14:26:31.561Z,21.09
2023-02-19T14:29:35.734Z,21.13
2023-02-19T14:32:40.609Z,21.17
2023-02-19T14:35:45.392Z,21.21
2023-02-19T14:38:53.187Z,21.21
2023-02-19T14:41:58.367Z,21.22
2023-02-19T14:45:03.991Z,21.26
2023-02-19T14:48:07.284Z,21.28
2023-02-19T14:51:13.772Z,21.27
2023-02-19T14:54:18.709Z,21.30
2023-02-19T14:57:24.515Z,21.28
2023-02-19T15:00:29.959Z,21.44
2023-02-19T15:03:34.173Z,21.41
2023-02-19T15:06:37.120Z,21.37
2023-02-19T15:09:42.291Z,21.37
2023-02-19T15:12:47.193Z,21.38
2023-02-19T15:15:52.079Z,21.33
2023-02-19T15:18:56.464Z,21.32
2023-02-19T15:21:59.461Z,21.39
2023-02-19T15:25:02.981Z,21.30
2023-02-19T15:28:29.885Z,21.34
2023-02-19T15:31:34.089Z,21.38
2023-02-19T15:34:36.980Z,21.32
2023-02-19T15:37:39.775Z,21.54
2023-02-19T15:40:45.161Z,21.49
2023-02-19T15:43:51.321Z,21.41
2023-02-19T15:46:56.690Z,21.47
2023-02-19T15:50:01.235Z,21.45
2023-02-19T15:53:07.157Z,21.45
2023-02-19T15:56:13.164Z,21.52
2023-02-19T15:59:21.170Z,21.46
2023-02-19T16:02:27.623Z,21.49
2023-02-19T16:05:30.800Z,21.50
2023-02-19T16:08:34.420Z,21.45
2023-02-19T16:11:38.541Z,21.45
2023-02-19T16:14:41.367Z,21.47
2023-02-19T16:17:46.223Z,21.41
2023-02-19T16:20:49.213Z,21.45
2023-02-19T16:23:54.914Z,21.39
2023-02-19T16:26:58.251Z,21.34
2023-02-19T16:30:04.842Z,21.35
2023-02-19T16:33:33.045Z,21.34
2023-02-19T16:36:37.006Z,21.31
2023-02-19T16:39:39.811Z,21.31
2023-02-19T16:43:15.698Z,21.32
2023-02-19T16:46:18.513Z,21.29
2023-02-19T16:49:23.809Z,21.31
2023-02-19T16:52:26.590Z,21.36
2023-02-19T16:55:29.964Z,21.44
2023-02-19T16:58:32.782Z,21.33
2023-02-19T17:01:35.779Z,21.36
2023-02-19T17:04:39.972Z,21.42
2023-02-19T17:07:42.783Z,21.48
2023-02-19T17:10:45.583Z,21.57
2023-02-19T17:13:48.446Z,21.56
2023-02-19T17:16:51.255Z,21.60
2023-02-19T17:19:56.128Z,21.61
2023-02-19T17:22:59.109Z,21.59
2023-02-19T17:26:02.029Z,21.58
2023-02-19T17:29:06.158Z,21.53
2023-02-19T17:32:09.085Z,21.51
2023-02-19T17:35:14.119Z,21.45
2023-02-19T17:38:17.005Z,21.39
2023-02-19T17:41:19.832Z,21.26
2023-02-19T17:44:22.697Z,21.25
2023-02-19T17:47:25.564Z,21.26
2023-02-19T17:50:30.896Z,21.21
2023-02-19T17:53:33.680Z,21.20
2023-02-19T17:56:36.774Z,21.18
2023-02-19T17:59:39.605Z,21.17
2023-02-19T18:02:42.517Z,21.12
2023-02-19T18:05:46.768Z,21.14
2023-02-19T18:08:50.494Z,21.08
2023-02-19T18:11:53.321Z,21.08
2023-02-19T18:14:57.307Z,21.19
2023-02-19T18:18:00.090Z,21.21
2023-02-19T18:21:04.311Z,21.20
2023-02-19T18:24:07.586Z,21.25
2023-02-19T18:27:10.418Z,21.33
2023-02-19T18:30:15.643Z,21.36
2023-02-19T18:33:18.745Z,21.42
2023-02-19T18:36:22.926Z,21.42
2023-02-19T18:39:25.778Z,21.47
2023-02-19T18:42:29.217Z,21.57
2023-02-19T18:45:35.328Z,21.54
2023-02-19T18:48:38.119Z,21.53
2023-02-19T18:51:43.484Z,21.56
2023-02-19T18:54:46.242Z,21.54
2023-02-19T18:57:49.167Z,21.54
2023-02-19T19:00:52.100Z,21.62
2023-02-19T19:03:54.928Z,21.62
2023-02-19T19:06:59.196Z,21.64
2023-02-19T19:10:02.037Z,21.60
2023-02-19T19:13:04.925Z,21.67
2023-02-19T19:16:07.918Z,21.63
2023-02-19T19:19:12.181Z,21.61
2023-02-19T19:22:16.746Z,21.54
2023-02-19T19:25:19.855Z,21.49
2023-02-19T19:28:22.729Z,21.46
2023-02-19T19:31:25.964Z,21.44
2023-02-19T19:34:28.807Z,21.39
2023-02-19T19:37:33.000Z,21.30
2023-02-19T19:40:35.815Z,21.26
2023-02-19T19:43:38.652Z,21.21
2023-02-19T19:46:45.775Z,21.11
2023-02-19T19:49:51.678Z,21.06
2023-02-19T19:52:55.955Z,21.06
2023-02-19T19:55:58.861Z,21.04
2023-02-19T19:59:01.679Z,21.05
2023-02-19T20:02:04.470Z,21.04
2023-02-19T20:05:08.028Z,21.01
2023-02-19T20:08:12.231Z,21.00
2023-02-19T20:11:15.069Z,20.97
2023-02-19T20:14:18.417Z,20.94
2023-02-19T20:17:21.618Z,20.88
2023-02-19T20:20:24.564Z,20.84
2023-02-19T20:23:28.840Z,20.88
2023-02-19T20:26:32.037Z,20.90
2023-02-19T20:29:35.469Z,21.07
2023-02-19T20:32:38.279Z,21.10
2023-02-19T20:35:41.135Z,21.10
2023-02-19T20:38:45.335Z,21.24
2023-02-19T20:41:48.485Z,21.26
2023-02-19T20:44:51.377Z,21.38
2023-02-19T20:47:54.259Z,21.47
2023-02-19T20:50:59.622Z,21.45
2023-02-19T20:54:03.880Z,21.53
2023-02-19T20:57:07.077Z,21.51
2023-02-19T21:00:11.274Z,21.60
2023-02-19T21:03:14.129Z,21.56
2023-02-19T21:06:17.006Z,21.59
2023-02-19T21:09:21.604Z,21.62
2023-02-19T21:12:24.437Z,21.59
2023-02-19T21:15:27.317Z,21.71
2023-02-19T21:18:30.097Z,21.65
2023-02-19T21:21:34.522Z,21.60
2023-02-19T21:24:38.657Z,21.62
2023-02-19T21:27:42.055Z,21.65
2023-02-19T21:30:44.963Z,21.64
2023-02-19T21:33:47.882Z,21.62
2023-02-19T21:36:52.834Z,21.66
2023-02-19T21:39:58.781Z,21.66
2023-02-19T21:43:01.904Z,21.64
2023-02-19T21:46:04.822Z,21.71
2023-02-19T21:49:08.043Z,21.68
2023-02-19T21:52:13.989Z,21.69
2023-02-19T21:55:18.177Z,21.68
2023-02-19T21:58:20.960Z,21.74
2023-02-19T22:01:26.386Z,21.83
2023-02-19T22:04:29.199Z,21.78
2023-02-19T22:07:32.256Z,21.72
2023-02-19T22:10:36.433Z,21.77
2023-02-19T22:13:39.801Z,21.73
2023-02-19T22:16:42.693Z,21.70
2023-02-19T22:19:45.613Z,21.75
2023-02-19T22:22:48.699Z,21.70
2023-02-19T22:25:52.845Z,21.74
2023-02-19T22:28:55.890Z,21.74
2023-02-19T22:31:58.792Z,21.73
2023-02-19T22:35:01.684Z,21.72
2023-02-19T22:38:04.497Z,21.78
2023-02-19T22:41:08.719Z,21.75
2023-02-19T22:44:12.003Z,21.75
2023-02-19T22:47:14.915Z,21.84
2023-02-19T22:50:19.565Z,21.78
2023-02-19T22:53:22.398Z,21.80
2023-02-19T22:56:27.780Z,21.82
2023-02-19T22:59:30.718Z,21.83
2023-02-19T23:02:33.561Z,21.91
2023-02-19T23:05:36.415Z,21.89
2023-02-19T23:08:39.196Z,21.88
2023-02-19T23:11:43.516Z,21.92
2023-02-19T23:14:47.504Z,21.84
2023-02-19T23:17:50.353Z,21.82
2023-02-19T23:20:53.217Z,21.88
2023-02-19T23:23:56.435Z,21.91
2023-02-19T23:27:00.798Z,21.80
2023-02-19T23:30:03.653Z,21.85
2023-02-19T23:33:06.522Z,21.80
2023-02-19T23:36:10.339Z,21.80
2023-02-19T23:39:14.004Z,21.80
2023-02-19T23:42:18.469Z,21.77
2023-02-19T23:45:21.396Z,21.72
2023-02-19T23:48:24.238Z,21.78
2023-02-19T23:51:27.127Z,21.78
2023-02-19T23:54:29.893Z,21.78
2023-02-19T23:57:37.077Z,21.82
